Time;durP1;ratioP1;P1;durP2;ratioP2;P2;SDS_P1;SDS_P2;PMS_P1;PMS_P2;Temp;Humidity;BMP_temperature;BMP_pressure;BME280_temperature;BME280_humidity;BME280_pressure;Samples;Min_cycle;Max_cycle;Signal;HPM_P1;HPM_P2
2022/10/19 00:01:10;;;;;;;7.07;0.85;;;11.90;99.90;;;10.54;100.00;102030.88;5020388;28;20047;-76
2022/10/19 00:03:37;;;;;;;1.95;0.20;;;11.80;99.90;;;10.36;100.00;102035.69;5019874;28;20030;-77
2022/10/19 00:06:13;;;;;;;6.70;0.32;;;11.70;99.90;;;10.23;100.00;102024.56;5021203;28;20036;-77
2022/10/19 00:08:40;;;;;;;3.65;0.80;;;11.70;99.90;;;10.25;100.00;102027.16;5018200;28;20046;-77
2022/10/19 00:11:06;;;;;;;3.78;0.65;;;11.60;99.90;;;10.24;100.00;102015.78;5018146;28;20494;-76
2022/10/19 00:13:32;;;;;;;6.85;0.65;;;11.60;99.90;;;10.23;100.00;102021.94;5018339;28;20044;-77
2022/10/19 00:15:57;;;;;;;5.00;0.60;;;11.60;99.90;;;10.22;100.00;102025.47;5018681;28;20057;-77
2022/10/19 00:18:31;;;;;;;2.05;0.40;;;11.50;99.90;;;10.10;100.00;102027.53;5021117;28;20105;-77
2022/10/19 00:21:10;;;;;;;9.57;0.80;;;11.50;99.90;;;10.12;100.00;102031.00;5016851;28;20117;-77
2022/10/19 00:23:36;;;;;;;13.05;1.00;;;11.50;99.90;;;10.11;100.00;102027.50;5015867;28;20448;-76
2022/10/19 00:26:02;;;;;;;7.28;0.70;;;11.40;99.90;;;10.11;100.00;102035.41;5018409;28;20088;-78
2022/10/19 00:28:29;;;;;;;11.18;1.10;;;11.40;99.90;;;10.08;100.00;102027.56;5020053;28;20399;-76
2022/10/19 00:31:00;;;;;;;6.30;0.80;;;11.30;99.90;;;10.02;100.00;102036.50;5020213;28;20025;-76
2022/10/19 00:33:26;;;;;;;8.07;1.17;;;11.30;99.90;;;9.94;100.00;102035.81;5017602;28;20021;-76
2022/10/19 00:35:52;;;;;;;11.00;0.90;;;11.30;99.90;;;9.92;100.00;102034.97;5017830;28;20022;-77
2022/10/19 00:38:20;;;;;;;10.27;0.80;;;11.20;99.90;;;9.90;100.00;102035.91;5020417;28;20030;-76
2022/10/19 00:40:47;;;;;;;10.75;1.00;;;11.20;99.90;;;9.89;100.00;102031.53;5017543;28;20033;-77
2022/10/19 00:43:22;;;;;;;6.03;0.68;;;11.20;99.90;;;9.90;100.00;102031.50;5017039;28;20745;-77
2022/10/19 00:45:48;;;;;;;10.60;1.25;;;11.20;99.90;;;9.94;100.00;102030.53;5019352;28;20029;-76
2022/10/19 00:48:26;;;;;;;6.47;0.68;;;11.20;99.90;;;9.92;100.00;102021.81;5018231;28;20026;-77
2022/10/19 00:50:54;;;;;;;10.07;1.17;;;11.20;99.90;;;9.96;100.00;102023.47;5001888;28;20030;-77
2022/10/19 00:53:25;;;;;;;9.57;0.95;;;11.20;99.90;;;9.96;100.00;102020.84;5016194;28;20108;-77
2022/10/19 00:55:51;;;;;;;12.60;0.98;;;11.20;99.90;;;9.93;100.00;102027.94;5018650;28;20057;-77
2022/10/19 00:58:16;;;;;;;6.43;0.80;;;11.20;99.90;;;9.92;100.00;102023.59;5015924;28;20080;-76
2022/10/19 01:00:42;;;;;;;6.97;1.00;;;11.20;99.90;;;9.90;100.00;102020.13;5021693;28;20053;-77
2022/10/19 01:03:10;;;;;;;5.40;0.82;;;11.10;99.90;;;9.86;100.00;102032.47;5019957;28;20397;-76
2022/10/19 01:05:37;;;;;;;15.68;1.25;;;11.10;99.90;;;9.78;100.00;102026.50;5001687;28;20041;-77
2022/10/19 01:08:03;;;;;;;15.63;1.63;;;11.10;99.90;;;9.72;100.00;102022.28;5018521;28;20080;-77
2022/10/19 01:10:51;;;;;;;11.95;1.13;;;11.00;99.90;;;9.68;100.00;102027.66;4999383;28;20021;-76
2022/10/19 01:13:45;;;;;;;10.60;1.20;;;11.00;99.90;;;9.62;100.00;102023.38;5018498;28;20038;-76
2022/10/19 01:16:24;;;;;;;8.82;0.82;;;10.90;99.90;;;9.63;100.00;102022.47;5006954;28;20553;-77
2022/10/19 01:19:53;;;;;;;11.57;1.30;;;10.90;99.90;;;9.69;100.00;102021.47;5020885;28;20083;-76
2022/10/19 01:22:56;;;;;;;17.50;1.27;;;11.00;99.90;;;9.72;100.00;102022.28;5020582;28;20033;-76
2022/10/19 01:25:46;;;;;;;16.02;1.10;;;11.00;99.90;;;9.76;100.00;102020.41;5024746;28;20030;-77
2022/10/19 01:28:24;;;;;;;11.73;1.15;;;11.00;99.90;;;9.79;100.00;102017.75;5022856;28;20017;-77
2022/10/19 01:31:30;;;;;;;7.00;0.82;;;11.10;99.90;;;9.81;100.00;102016.81;5022646;28;20041;-76
2022/10/19 01:34:22;;;;;;;6.68;0.88;;;11.00;99.90;;;9.79;100.00;102017.75;4960260;28;20044;-75
2022/10/19 01:37:26;;;;;;;13.75;1.38;;;11.00;99.90;;;9.76;100.00;102017.78;5023127;28;20057;-77
2022/10/19 01:40:23;;;;;;;12.68;1.00;;;11.10;99.90;;;9.75;100.00;102022.19;5023379;28;20029;-77
2022/10/19 01:43:14;;;;;;;19.20;1.60;;;11.00;99.90;;;9.78;100.00;102021.25;5006316;28;20026;-76
2022/10/19 01:45:54;;;;;;;15.68;1.40;;;11.10;99.90;;;9.82;100.00;102020.28;5020330;28;20030;-77
2022/10/19 01:48:35;;;;;;;26.60;1.50;;;11.10;99.90;;;9.92;100.00;102032.34;5023471;28;20052;-77
2022/10/19 01:51:08;;;;;;;14.95;1.70;;;11.10;99.90;;;9.97;100.00;102027.81;5022005;28;20040;-77
2022/10/19 01:53:41;;;;;;;8.30;1.08;;;11.20;99.90;;;10.01;100.00;102021.59;5018279;28;20121;-77
2022/10/19 01:56:09;;;;;;;12.05;1.40;;;11.20;99.90;;;9.95;100.00;102024.34;5020296;28;20038;-76
2022/10/19 01:58:38;;;;;;;10.23;1.30;;;11.20;99.90;;;9.95;100.00;102021.72;5021330;28;20053;-77
2022/10/19 02:01:15;;;;;;;11.15;1.30;;;11.20;99.90;;;9.90;100.00;102018.34;5020927;28;20060;-77
2022/10/19 02:03:42;;;;;;;9.05;1.20;;;11.10;99.90;;;9.89;100.00;102013.13;5022103;28;20033;-77
2022/10/19 02:06:13;;;;;;;9.73;1.13;;;11.10;99.90;;;9.86;100.00;102011.44;5019866;28;20058;-77
2022/10/19 02:08:51;;;;;;;10.77;1.55;;;11.10;99.90;;;9.89;100.00;102010.50;5020033;28;20018;-76
2022/10/19 02:11:19;;;;;;;9.07;1.02;;;11.10;99.90;;;9.94;100.00;102006.84;5018508;28;20124;-77
2022/10/19 02:13:50;;;;;;;10.75;1.08;;;11.20;99.90;;;10.00;100.00;102006.72;5022533;28;20079;-77
2022/10/19 02:16:43;;;;;;;9.98;1.15;;;11.20;99.90;;;10.07;100.00;102013.56;5020642;28;20104;-77
2022/10/19 02:19:12;;;;;;;9.90;1.20;;;11.30;99.90;;;10.12;100.00;102017.84;5021928;28;20118;-76
2022/10/19 02:21:38;;;;;;;15.38;1.85;;;11.30;99.90;;;10.13;100.00;102015.19;5016699;28;20048;-77
2022/10/19 02:24:06;;;;;;;11.25;1.10;;;11.30;99.90;;;10.18;100.00;102012.44;5023129;28;20493;-77
2022/10/19 02:26:33;;;;;;;13.73;1.38;;;11.40;99.90;;;10.22;100.00;102011.47;5019358;28;20621;-77
2022/10/19 02:28:59;;;;;;;11.65;1.52;;;11.40;99.90;;;10.21;100.00;102009.72;5020713;28;20029;-76
2022/10/19 02:31:25;;;;;;;15.93;1.85;;;11.40;99.90;;;10.23;100.00;102010.53;5003060;28;20025;-75
2022/10/19 02:33:52;;;;;;;16.33;1.77;;;11.40;99.90;;;10.25;100.00;102003.47;5019186;28;20044;-76
2022/10/19 02:36:21;;;;;;;14.10;1.50;;;11.40;99.90;;;10.26;100.00;102016.59;5020765;28;20115;-77
2022/10/19 02:38:47;;;;;;;9.95;1.17;;;11.40;99.90;;;10.22;100.00;102019.38;5021952;28;20025;-75
2022/10/19 02:41:32;;;;;;;14.93;1.60;;;11.40;99.90;;;10.19;100.00;102027.31;5016206;28;20034;-79
2022/10/19 02:44:13;;;;;;;4.13;0.68;;;11.40;99.90;;;10.16;100.00;102030.03;5003126;28;20440;-78
2022/10/19 02:47:01;;;;;;;15.38;1.48;;;11.40;99.90;;;10.14;100.00;102023.94;5011233;28;20033;-75
2022/10/19 02:49:28;;;;;;;19.00;1.52;;;11.30;99.90;;;10.07;100.00;102026.72;5020882;28;20030;-76
2022/10/19 02:52:07;;;;;;;13.50;1.40;;;11.30;99.90;;;9.99;100.00;102026.03;5001469;28;21209;-78
2022/10/19 02:54:33;;;;;;;16.65;1.77;;;11.20;99.90;;;9.96;100.00;102012.09;5018514;28;20409;-79
2022/10/19 02:56:59;;;;;;;13.98;1.08;;;11.20;99.90;;;9.90;100.00;102025.38;5019531;28;20618;-77
2022/10/19 02:59:25;;;;;;;15.98;1.33;;;11.20;99.90;;;9.87;100.00;102034.22;5022134;28;20068;-78
2022/10/19 03:01:55;;;;;;;11.43;1.92;;;11.10;99.90;;;9.83;100.00;102027.28;5003456;28;20057;-76
2022/10/19 03:04:21;;;;;;;9.15;1.20;;;11.10;99.90;;;9.83;100.00;102027.28;5016822;28;20056;-77
2022/10/19 03:06:47;;;;;;;11.88;1.15;;;11.10;99.90;;;9.77;100.00;102019.53;5018850;28;20028;-75
2022/10/19 03:09:12;;;;;;;10.25;0.98;;;11.00;99.90;;;9.70;100.00;102025.81;5018892;28;20393;-77
2022/10/19 03:11:38;;;;;;;9.10;1.17;;;11.00;99.90;;;9.60;100.00;102028.66;5018682;28;20099;-75
2022/10/19 03:14:04;;;;;;;12.77;1.45;;;10.90;99.90;;;9.46;100.00;102030.72;5020296;28;20509;-76
2022/10/19 03:16:29;;;;;;;7.10;1.00;;;10.70;99.90;;;9.26;100.00;102036.38;5018211;28;20068;-76
2022/10/19 03:19:02;;;;;;;9.43;1.20;;;10.60;99.90;;;9.13;100.00;102035.75;5019453;28;20034;-76
2022/10/19 03:21:28;;;;;;;12.75;1.92;;;10.50;99.90;;;9.11;100.00;102044.56;5017618;28;20031;-76
2022/10/19 03:23:54;;;;;;;12.65;2.10;;;10.50;99.90;;;9.13;100.00;102038.38;5020438;28;20564;-76
2022/10/19 03:26:20;;;;;;;7.72;1.80;;;10.50;99.90;;;9.19;100.00;102040.91;5020624;28;20470;-77
2022/10/19 03:28:45;;;;;;;11.18;1.60;;;10.60;99.90;;;9.27;100.00;102051.28;5023166;28;20025;-78
2022/10/19 03:31:20;;;;;;;14.88;1.65;;;10.60;99.90;;;9.31;100.00;102060.81;5017030;28;20494;-80
2022/10/19 03:33:46;;;;;;;11.63;2.13;;;10.30;99.90;;;9.37;100.00;102044.03;5017943;28;20037;-77
2022/10/19 03:36:34;;;;;;;12.65;1.70;;;10.70;99.90;;;9.44;100.00;102062.31;5019315;28;21225;-77
2022/10/19 03:39:04;;;;;;;11.00;1.40;;;10.80;99.90;;;9.50;100.00;102061.28;5051825;22;20045;-76
2022/10/19 03:41:33;;;;;;;15.30;1.40;;;10.80;99.90;;;9.53;100.00;102061.25;5035049;28;20034;-76
2022/10/19 03:43:59;;;;;;;13.35;1.73;;;10.80;99.90;;;9.57;100.00;102057.66;5020662;28;20452;-76
2022/10/19 03:46:26;;;;;;;8.20;1.08;;;10.80;99.90;;;9.54;100.00;102065.59;5027165;28;20040;-75
2022/10/19 03:48:53;;;;;;;14.48;1.55;;;10.90;99.90;;;9.60;100.00;102067.25;5020319;28;20032;-76
2022/10/19 03:51:25;;;;;;;10.57;1.20;;;10.90;99.90;;;9.62;100.00;102068.94;5052712;28;20061;-76
2022/10/19 03:53:53;;;;;;;12.93;1.38;;;10.90;99.90;;;9.60;100.00;102076.00;5037367;28;20033;-76
2022/10/19 03:56:23;;;;;;;8.07;1.38;;;10.90;99.90;;;9.58;100.00;102067.25;5035268;28;20038;-76
2022/10/19 03:58:51;;;;;;;12.20;1.52;;;10.90;99.90;;;9.56;100.00;102070.84;5034558;28;20079;-75
2022/10/19 04:01:38;;;;;;;15.88;1.55;;;10.90;99.90;;;9.57;100.00;102067.31;5020801;28;20493;-76
2022/10/19 04:04:09;;;;;;;13.25;1.90;;;10.90;99.90;;;9.54;100.00;102068.22;5036119;28;20130;-76
2022/10/19 04:06:40;;;;;;;8.05;1.65;;;10.90;99.90;;;9.53;100.00;102077.03;5019788;28;20029;-76
2022/10/19 04:09:08;;;;;;;11.18;1.48;;;10.90;99.90;;;9.48;100.00;102068.38;5034326;28;20025;-76
2022/10/19 04:11:34;;;;;;;15.32;2.00;;;10.80;99.90;;;9.51;100.00;102084.06;5017285;28;20060;-76
2022/10/19 04:14:00;;;;;;;17.58;2.28;;;10.80;99.90;;;9.61;100.00;102083.00;5019887;28;20128;-76
2022/10/19 04:16:28;;;;;;;11.05;1.65;;;10.90;99.90;;;9.59;100.00;102092.69;5040046;28;20499;-75
2022/10/19 04:18:54;;;;;;;12.98;1.90;;;10.90;99.90;;;9.59;100.00;102090.06;5038723;28;20101;-76
2022/10/19 04:21:37;;;;;;;11.20;1.60;;;10.90;99.90;;;9.63;100.00;102101.34;5034053;28;20099;-76
2022/10/19 04:24:09;;;;;;;16.05;1.75;;;10.90;99.90;;;9.59;100.00;102097.94;5020168;28;20432;-76
2022/10/19 04:26:41;;;;;;;12.82;1.92;;;10.90;99.90;;;9.65;100.00;102110.97;5040509;28;20040;-76
2022/10/19 04:29:07;;;;;;;14.68;2.55;;;10.90;99.90;;;9.67;100.00;102110.06;5020215;28;20057;-76
2022/10/19 04:31:33;;;;;;;11.98;2.08;;;10.90;99.90;;;9.71;100.00;102117.00;5036255;28;20079;-76
2022/10/19 04:33:59;;;;;;;18.17;2.03;;;11.00;99.90;;;9.71;100.00;102112.59;5018842;28;20041;-76
2022/10/19 04:36:25;;;;;;;16.27;2.17;;;10.90;99.90;;;9.69;100.00;102110.88;5036262;28;20029;-76
2022/10/19 04:38:51;;;;;;;15.77;2.22;;;11.00;99.90;;;9.68;100.00;102127.59;5037713;28;20454;-76
2022/10/19 04:41:19;;;;;;;15.57;1.95;;;11.00;99.90;;;9.64;100.00;102117.09;5036623;28;20041;-75
2022/10/19 04:43:46;;;;;;;14.55;2.15;;;10.90;99.90;;;9.61;100.00;102109.28;5019674;28;20032;-76
2022/10/19 04:46:18;;;;;;;12.10;2.00;;;10.90;99.90;;;9.62;100.00;102112.78;5035470;28;20394;-76
2022/10/19 04:48:46;;;;;;;12.88;1.90;;;10.90;99.90;;;9.64;100.00;102117.09;5018938;28;20025;-76
2022/10/19 04:51:13;;;;;;;19.83;2.53;;;10.90;99.90;;;9.67;100.00;102125.84;5041717;28;20057;-76
2022/10/19 04:53:41;;;;;;;12.85;2.08;;;10.90;99.90;;;9.68;100.00;102123.19;5039645;28;20087;-76
2022/10/19 04:56:14;;;;;;;18.77;2.20;;;11.00;99.90;;;9.68;100.00;102119.69;5037022;28;20708;-76
2022/10/19 04:58:41;;;;;;;28.35;3.45;;;11.00;99.90;;;9.74;100.00;102124.81;5040719;28;20033;-76
2022/10/19 05:01:19;;;;;;;18.27;2.22;;;11.00;99.90;;;9.76;100.00;102131.78;5058222;28;20107;-76
2022/10/19 05:03:46;;;;;;;16.55;2.15;;;11.00;99.90;;;9.78;100.00;102126.47;5022649;28;20057;-76
2022/10/19 05:06:14;;;;;;;17.05;2.30;;;11.00;99.90;;;9.76;100.00;102126.53;5037268;28;20489;-76
2022/10/19 05:08:40;;;;;;;21.15;2.13;;;11.00;99.90;;;9.78;100.00;102124.72;5038396;28;20028;-76
2022/10/19 05:11:11;;;;;;;17.73;2.30;;;11.00;99.90;;;9.80;100.00;102116.78;5039041;28;20063;-76
2022/10/19 05:13:39;;;;;;;14.05;2.38;;;11.10;99.90;;;9.80;100.00;102119.41;5038911;28;20021;-76
2022/10/19 05:16:07;;;;;;;20.95;2.30;;;11.10;99.90;;;9.83;100.00;102127.25;5040723;28;20040;-76
2022/10/19 05:18:33;;;;;;;19.15;2.35;;;11.10;99.90;;;9.81;100.00;102124.66;5041418;28;20017;-75
2022/10/19 05:21:12;;;;;;;20.25;2.85;;;11.10;99.90;;;9.81;100.00;102123.78;5020364;28;20494;-76
2022/10/19 05:23:39;;;;;;;15.10;1.83;;;11.10;99.90;;;9.79;100.00;102136.13;5041371;28;20104;-76
2022/10/19 05:26:10;;;;;;;12.85;2.03;;;11.00;99.90;;;9.77;100.00;102133.50;5039658;28;21028;-76
2022/10/19 05:28:37;;;;;;;11.15;2.03;;;11.00;99.90;;;9.75;100.00;102131.81;5041740;28;20028;-76
2022/10/19 05:31:16;;;;;;;13.85;2.22;;;11.00;99.90;;;9.75;100.00;102131.81;5042171;28;20124;-75
2022/10/19 05:33:42;;;;;;;20.80;2.38;;;11.00;99.90;;;9.75;100.00;102130.03;5038476;28;20029;-76
2022/10/19 05:36:19;;;;;;;15.05;1.95;;;11.00;99.90;;;9.73;100.00;102129.19;5021314;28;20037;-75
2022/10/19 05:38:47;;;;;;;;;;;11.00;99.90;;;9.70;100.00;102133.66;5042377;28;20036;-76
2022/10/19 05:41:14;;;;;;;20.55;1.88;;;11.00;99.90;;;9.65;100.00;102125.84;5038844;28;20576;-75
2022/10/19 05:43:41;;;;;;;9.52;1.52;;;10.90;99.90;;;9.62;100.00;102134.69;5036700;28;20029;-75
2022/10/19 05:46:16;;;;;;;10.98;1.67;;;11.00;99.90;;;9.68;100.00;102140.72;5038477;28;20033;-75
2022/10/19 05:48:42;;;;;;;10.30;1.77;;;11.00;99.90;;;9.67;100.00;102131.09;5037042;28;20022;-75
2022/10/19 05:51:11;;;;;;;12.00;1.60;;;11.00;99.90;;;9.65;100.00;102142.53;5038926;28;20037;-76
2022/10/19 05:53:37;;;;;;;12.95;1.70;;;11.00;99.90;;;9.67;100.00;102149.50;5039039;28;20029;-75
2022/10/19 05:56:05;;;;;;;7.78;1.50;;;11.00;99.90;;;9.68;100.00;102157.38;5019095;28;20034;-76
2022/10/19 05:58:32;;;;;;;11.77;1.63;;;11.00;99.90;;;9.77;100.00;102156.31;5042565;28;20032;-76
2022/10/19 06:00:59;;;;;;;7.82;1.50;;;11.00;99.90;;;9.81;100.00;102172.00;5020943;28;20026;-76
2022/10/19 06:03:26;;;;;;;6.85;1.30;;;11.10;99.90;;;9.86;100.00;102171.91;5022785;28;20021;-76
2022/10/19 06:06:10;;;;;;;9.23;1.23;;;11.10;99.90;;;9.86;100.00;102164.03;5021907;28;20037;-76
2022/10/19 06:08:38;;;;;;;8.55;1.50;;;11.10;99.90;;;9.83;100.00;102171.97;5035939;28;20103;-76
2022/10/19 06:11:14;;;;;;;8.07;1.58;;;11.10;99.90;;;9.83;100.00;102175.47;5039114;28;20103;-76
2022/10/19 06:13:42;;;;;;;9.68;1.42;;;11.00;99.90;;;9.83;100.00;102179.88;5053459;28;20025;-76
2022/10/19 06:16:09;;;;;;;9.20;1.45;;;11.00;99.90;;;9.79;100.00;102178.19;5041347;28;20036;-76
2022/10/19 06:18:37;;;;;;;8.60;1.08;;;11.00;99.90;;;9.77;100.00;102183.47;5038501;28;20083;-76
2022/10/19 06:21:15;;;;;;;7.72;1.27;;;11.00;99.90;;;9.68;100.00;102185.44;5037438;28;20056;-76
2022/10/19 06:23:41;;;;;;;6.88;1.02;;;10.90;99.90;;;9.74;100.00;102187.94;5035571;28;20083;-76
2022/10/19 06:26:11;;;;;;;9.38;1.20;;;10.90;99.90;;;9.83;100.00;102195.66;5040222;28;20055;-76
2022/10/19 06:28:40;;;;;;;9.38;1.70;;;11.00;99.90;;;9.94;100.00;102198.06;5036388;28;20029;-76
2022/10/19 06:31:06;;;;;;;8.55;1.10;;;11.00;99.90;;;10.03;100.00;102203.16;5038754;28;20509;-76
2022/10/19 06:33:33;;;;;;;8.02;1.23;;;11.30;99.90;;;11.83;100.00;102217.25;5038337;28;20029;-77
2022/10/19 06:36:20;;;;;;;6.10;1.15;;;12.30;99.90;;;14.22;91.71;102227.06;5018775;28;20072;-77
2022/10/19 06:38:47;;;;;;;4.13;1.33;;;13.10;99.90;;;15.65;81.82;102221.22;5035935;28;20025;-77
2022/10/19 06:41:13;;;;;;;6.05;1.05;;;14.10;99.90;;;19.53;68.15;102225.94;5038870;28;20032;-78
2022/10/19 06:43:41;;;;;;;5.45;1.15;;;15.10;99.90;;;21.06;60.66;102228.69;5018752;28;20561;-77
2022/10/19 06:46:16;;;;;;;7.78;0.80;;;16.20;99.90;;;21.65;58.31;102239.00;5039289;28;20112;-77
2022/10/19 06:48:42;;;;;;;6.53;1.20;;;17.00;99.90;;;21.71;56.17;102235.03;5039100;28;20074;-76
2022/10/19 06:51:08;;;;;;;8.43;1.00;;;17.80;99.90;;;23.69;52.89;102254.47;5051244;28;20021;-77
2022/10/19 06:53:36;;;;;;;5.15;1.00;;;18.60;99.90;;;24.55;50.34;102264.63;5036945;28;20029;-78
2022/10/19 06:56:05;;;;;;;4.78;0.90;;;19.40;99.90;;;25.29;48.73;102260.34;5020938;28;20025;-78
2022/10/19 06:58:35;;;;;;;5.65;0.80;;;20.10;99.90;;;25.71;47.61;102268.44;5038809;28;20029;-76
2022/10/19 07:01:05;;;;;;;4.70;1.00;;;20.60;99.90;;;23.39;50.62;102250.50;5038425;28;20035;-77
2022/10/19 07:03:35;;;;;;;4.47;1.20;;;20.90;99.90;;;23.69;49.19;102260.72;5020675;28;20029;-77
2022/10/19 07:06:05;;;;;;;6.53;1.25;;;20.70;99.90;;;24.27;49.31;102276.75;5035998;28;20099;-77
2022/10/19 07:08:33;;;;;;;4.95;0.77;;;20.70;99.90;;;22.89;48.60;102265.91;5037977;28;20041;-78
2022/10/19 07:11:03;;;;;;;6.35;0.85;;;20.20;99.90;;;20.99;55.51;102270.25;5034146;28;20098;-77
2022/10/19 07:13:29;;;;;;;9.25;1.08;;;19.90;99.90;;;22.26;51.41;102290.13;5032243;28;20108;-78
2022/10/19 07:16:04;;;;;;;7.78;0.90;;;19.90;99.90;;;22.10;52.81;102289.50;5039504;28;20032;-76
2022/10/19 07:18:30;;;;;;;5.60;0.77;;;20.10;99.90;;;23.62;49.43;102304.31;5035244;28;20041;-77
2022/10/19 07:20:58;;;;;;;3.40;0.70;;;20.70;99.90;;;24.31;47.75;102315.91;5053152;28;20690;-77
2022/10/19 07:23:26;;;;;;;6.47;1.00;;;21.30;99.90;;;24.44;46.89;102314.94;5035957;28;20128;-78
2022/10/19 07:26:00;;;;;;;2.90;0.55;;;21.40;99.90;;;22.20;51.38;102317.41;5019343;28;20022;-77
2022/10/19 07:28:29;;;;;;;2.58;0.40;;;21.10;99.90;;;22.51;50.52;102321.44;5022954;28;20112;-77
2022/10/19 07:31:07;;;;;;;1.83;0.40;;;20.50;99.90;;;19.63;53.91;102309.03;5037687;28;20059;-76
2022/10/19 07:33:34;;;;;;;2.97;0.50;;;19.50;99.90;;;17.21;59.60;102307.94;5022703;28;20195;-77
2022/10/19 07:36:05;;;;;;;4.28;0.60;;;18.50;99.90;;;16.42;62.38;102324.09;5017007;28;20405;-77
2022/10/19 07:38:32;;;;;;;4.28;0.40;;;18.10;99.90;;;19.40;56.79;102343.34;5037694;28;20033;-77
2022/10/19 07:41:13;;;;;;;4.45;0.52;;;18.80;99.90;;;20.94;52.93;102341.13;5053261;28;20059;-78
2022/10/19 07:43:40;;;;;;;1.73;0.47;;;19.70;99.90;;;21.38;52.24;102346.22;5036671;28;20021;-78
2022/10/19 07:46:19;;;;;;;2.95;0.50;;;19.80;99.90;;;21.09;50.86;102340.09;5037827;28;20493;-77
2022/10/19 07:48:46;;;;;;;2.25;0.30;;;20.90;99.90;;;21.56;51.81;102354.88;5034394;28;20037;-77
2022/10/19 07:51:16;;;;;;;3.28;0.50;;;21.00;99.90;;;21.24;51.97;102359.66;5036427;28;20017;-77
2022/10/19 07:53:43;;;;;;;1.65;0.30;;;20.70;99.90;;;18.84;54.99;102353.63;5015958;28;20454;-77
2022/10/19 07:56:15;;;;;;;5.45;0.22;;;20.60;99.90;;;20.00;53.83;102358.53;5036733;28;20032;-77
2022/10/19 07:58:44;;;;;;;2.35;0.30;;;20.80;99.90;;;20.79;52.66;102361.69;5038817;28;20029;-78
2022/10/19 08:01:16;;;;;;;3.03;0.40;;;21.10;99.90;;;20.92;51.41;102364.44;5034954;28;20033;-77
2022/10/19 08:03:43;;;;;;;5.22;0.60;;;21.50;99.90;;;21.20;51.44;102367.03;5034370;28;20021;-77
2022/10/19 08:06:12;;;;;;;2.10;0.40;;;21.20;99.90;;;19.94;52.90;102361.56;5054804;28;20456;-77
2022/10/19 08:08:39;;;;;;;1.80;0.47;;;21.10;99.90;;;19.92;53.47;102368.81;5037435;28;20061;-77
2022/10/19 08:11:39;;;;;;;4.22;0.40;;;21.10;99.90;;;19.66;51.79;102367.66;5038251;28;20052;-77
2022/10/19 08:14:05;;;;;;;2.90;0.30;;;20.70;99.90;;;19.06;55.77;102374.63;5025890;28;20064;-77
2022/10/19 08:16:40;;;;;;;1.20;0.30;;;20.30;99.90;;;18.26;55.68;102371.91;5016929;28;20026;-76
2022/10/19 08:19:14;;;;;;;0.70;0.10;;;19.60;99.90;;;17.41;59.38;102378.88;5038624;28;20044;-77
2022/10/19 08:21:43;;;;;;;0.93;0.15;;;18.70;99.90;;;16.63;61.05;102367.44;5035940;28;20045;-78
2022/10/19 08:24:11;;;;;;;1.33;0.28;;;17.80;99.90;;;16.06;61.67;102371.78;5034988;28;20080;-76
2022/10/19 08:26:39;;;;;;;4.28;0.30;;;17.40;99.90;;;15.70;64.18;102373.25;5018331;28;20067;-76
2022/10/19 08:29:21;;;;;;;2.13;0.20;;;16.90;99.90;;;15.03;64.70;102365.38;5033433;28;20028;-77
2022/10/19 08:31:49;;;;;;;4.00;0.40;;;16.20;99.90;;;14.30;66.69;102367.19;5019691;28;20118;-76
2022/10/19 08:34:15;;;;;;;1.00;0.30;;;15.60;99.90;;;13.86;68.31;102364.31;5040338;28;20033;-77
2022/10/19 08:36:42;;;;;;;0.10;0.10;;;15.10;99.90;;;13.57;67.85;102358.22;5020818;28;20033;-77
2022/10/19 08:39:11;;;;;;;1.15;0.40;;;15.20;99.90;;;14.24;67.77;102370.06;5019656;28;20045;-76
2022/10/19 08:41:56;;;;;;;0.30;0.20;;;15.30;99.90;;;13.91;66.10;102363.25;5014903;28;20635;-76
2022/10/19 08:45:24;;;;;;;1.50;0.20;;;14.80;99.90;;;13.39;67.40;102366.75;5037741;28;20032;-77
2022/10/19 08:48:18;;;;;;;4.68;0.50;;;14.50;99.90;;;12.72;69.33;102363.50;5032709;28;20033;-76
2022/10/19 08:50:45;;;;;;;3.28;1.55;;;14.20;99.90;;;12.88;69.80;102370.97;5036075;28;20069;-75
2022/10/19 08:53:34;;;;;;;1.30;0.17;;;14.30;99.90;;;13.01;69.18;102374.97;5035848;28;20021;-77
2022/10/19 08:56:32;;;;;;;0.50;0.20;;;14.30;99.90;;;13.03;68.59;102367.84;5037672;28;20408;-76
2022/10/19 08:59:23;;;;;;;0.68;0.20;;;14.40;99.90;;;13.33;67.87;102378.44;5035744;28;20030;-76
2022/10/19 09:01:58;;;;;;;1.42;0.10;;;14.60;99.90;;;13.62;68.07;102382.75;5034643;28;20037;-76
2022/10/19 09:04:48;;;;;;;3.40;0.30;;;14.60;99.90;;;13.74;67.34;102382.34;5034408;28;20404;-77
2022/10/19 09:07:36;;;;;;;1.98;0.20;;;14.40;99.90;;;13.22;68.10;102378.72;5035577;28;20048;-76
2022/10/19 09:10:31;;;;;;;1.33;0.17;;;14.30;99.90;;;13.08;68.81;102376.50;5020141;28;20490;-76
2022/10/19 09:13:27;;;;;;;1.02;0.20;;;14.00;99.90;;;13.08;69.68;102373.00;5025610;28;20037;-75
2022/10/19 09:15:54;;;;;;;0.50;0.10;;;13.80;99.90;;;12.60;67.54;102374.41;5036101;28;20107;-77
2022/10/19 09:18:29;;;;;;;1.05;0.20;;;13.70;99.90;;;12.44;68.06;102381.91;5032166;28;20026;-76
2022/10/19 09:21:19;;;;;;;1.35;0.00;;;13.70;99.90;;;12.41;70.05;102382.00;5051600;28;20211;-76
2022/10/19 09:24:11;;;;;;;2.03;0.15;;;13.60;99.90;;;12.46;70.84;102389.78;5037254;28;20029;-76
2022/10/19 09:26:57;;;;;;;1.63;0.17;;;13.70;99.90;;;12.56;69.89;102396.53;5022331;28;20061;-76
2022/10/19 09:29:55;;;;;;;0.30;0.10;;;13.60;99.90;;;12.11;69.26;102392.47;5014031;28;20021;-76
2022/10/19 09:32:37;;;;;;;1.33;0.20;;;13.50;99.90;;;12.15;69.95;102408.25;5052199;28;20033;-77
2022/10/19 09:35:40;;;;;;;0.50;0.20;;;13.50;99.90;;;12.18;69.81;102406.41;5032328;28;20040;-76
2022/10/19 09:38:06;;;;;;;0.17;0.10;;;13.50;99.90;;;12.26;69.78;102401.75;5039594;28;20075;-76
2022/10/19 09:40:37;;;;;;;0.15;0.10;;;13.60;99.90;;;12.51;71.00;102409.03;5023150;28;20092;-76
2022/10/19 09:43:20;;;;;;;1.95;0.28;;;13.70;99.90;;;12.61;69.45;102410.50;5039242;28;20493;-76
2022/10/19 09:45:58;;;;;;;0.15;0.10;;;13.80;99.90;;;12.82;69.80;102414.28;5037790;28;20055;-76
2022/10/19 09:49:02;;;;;;;0.73;0.17;;;13.80;99.90;;;12.76;69.35;102418.91;5040448;28;20025;-76
2022/10/19 09:51:51;;;;;;;0.57;0.17;;;13.90;99.90;;;12.61;66.93;102417.56;5009603;28;20141;-77
2022/10/19 09:54:39;;;;;;;1.50;0.10;;;13.80;99.90;;;12.58;68.74;102418.50;5038064;28;20116;-76
2022/10/19 09:57:22;;;;;;;0.20;0.10;;;13.90;99.90;;;12.71;69.11;102419.03;5039837;28;20052;-76
2022/10/19 09:59:52;;;;;;;4.18;0.22;;;13.80;99.90;;;12.61;67.98;102418.44;5035808;28;20037;-76
2022/10/19 10:02:27;;;;;;;2.38;0.20;;;13.90;99.90;;;12.78;67.51;102425.88;5036684;28;20094;-76
2022/10/19 10:05:14;;;;;;;2.40;0.20;;;13.90;99.90;;;12.91;70.13;102415.81;5021626;28;20517;-76
2022/10/19 10:07:46;;;;;;;1.63;0.30;;;13.90;99.90;;;12.86;68.19;102417.72;5034780;28;20374;-76
2022/10/19 10:10:38;;;;;;;0.35;0.10;;;13.90;99.90;;;12.63;67.01;102419.22;5025805;28;20133;-76
2022/10/19 10:13:19;;;;;;;1.08;0.10;;;13.90;99.90;;;12.75;67.05;102430.41;5036166;28;20064;-76
2022/10/19 10:15:59;;;;;;;3.42;0.35;;;13.70;99.90;;;12.39;67.93;102430.50;5037818;28;20025;-76
2022/10/19 10:18:30;;;;;;;0.98;0.20;;;13.70;99.90;;;12.48;69.56;102440.81;5020535;28;20133;-77
2022/10/19 10:21:09;;;;;;;0.10;0.10;;;13.80;99.90;;;12.70;68.36;102443.75;5036957;28;20033;-77
2022/10/19 10:23:44;;;;;;;1.08;0.30;;;13.70;99.90;;;12.46;66.66;102438.22;5020303;28;20025;-76
2022/10/19 10:26:28;;;;;;;1.52;0.25;;;13.60;99.90;;;12.30;67.15;102440.38;5038140;28;20530;-76
2022/10/19 10:28:54;;;;;;;1.25;0.70;;;13.40;99.90;;;12.00;65.51;102436.78;5037362;28;20042;-77
2022/10/19 10:31:26;;;;;;;0.40;0.20;;;13.40;99.90;;;12.20;67.22;102433.66;5041346;28;20031;-76
2022/10/19 10:34:04;;;;;;;1.52;0.13;;;13.40;99.90;;;12.19;67.38;102446.88;5038982;28;20025;-76
2022/10/19 10:36:34;;;;;;;1.20;0.20;;;13.40;99.90;;;12.19;69.54;102444.25;5037898;28;20037;-76